Terminal Aerodrome Forecast
Issued by NWS Sterling, VA

Home | Current Version | Previous Version | Text Only | Print | Product List | Glossary On
Versions: 1 2 3 4 5 6 7 8 9 10 11 12 13 14 15 16 17 18 19 20 21 22 23 24 25 26 27
382
FTUS41 KLWX 282333
TAFCHO
TAF
KCHO 282333Z 2900/2924 11007KT 3SM -SHRA VCTS OVC006CB
     FM290500 11005KT 2SM +SHRA VCTS OVC003CB
     FM291200 09005KT 1SM +SHRA OVC008
     FM291800 10007KT 3SM +SHRA OVC015=

USA.gov is the U.S. government's official web portal to all federal, state and local government web resources and services.